logo
Search for airport 
image banner adimage banner adimage banner ad
image banner ad

LF3951 - Doucier

Located in Doucier, France

ICAO - , IATA -

Data provided by Airmate  

General information

Coordinates: N46°39'49" E5°45'41"
Elevation is 1735 feet MSL.
 
View others Airports in Franche-Comté

Operational data

Special qualification required
Current time UTC:
Current local time:
Weather at : LFGJ - Dole Tavaux ( 49 km )
METAR: LFGJ 251830Z AUTO 02003KT CAVOK 16/11 Q1022
TAF: TAF LFGJ 251400Z 2515/2524 VRB03KT CAVOK BECMG 2521/2524 2500 BR
View NOTAMs / SUP AIP / TFR affecting this airport [VIEW]
Communications frequencies: [VIEW]

Runways:

RWY identifierQFULength (ft)Width (ft)SurfaceLDA (ft)
031968131GRASS
211968131GRASS

Airport contact information

Address: Doucier France

Satellite view of LF3951